Time;durP1;ratioP1;P1;durP2;ratioP2;P2;SDS_P1;SDS_P2;PMS_P1;PMS_P2;Temp;Humidity;BMP_temperature;BMP_pressure;BME280_temperature;BME280_humidity;BME280_pressure;Samples;Min_cycle;Max_cycle;Signal;HPM_P1;HPM_P2
2022/03/22 00:01:51;;;;;;;;;;;;;;;29.86;13.13;102071.13;5002768;28;813;-27
2022/03/22 00:04:16;;;;;;;;;;;;;;;29.62;13.31;102061.94;4996443;28;853;-27
2022/03/22 00:06:41;;;;;;;;;;;;;;;29.77;13.48;102066.69;4996461;28;806;-26
2022/03/22 00:09:07;;;;;;;;;;;;;;;29.76;13.62;102068.53;4995297;28;801;-27
2022/03/22 00:11:33;;;;;;;;;;;;;;;29.87;13.74;102064.66;4996107;28;837;-27
2022/03/22 00:13:58;;;;;;;;;;;;;;;29.57;13.23;102065.13;4997815;28;1899;-27
2022/03/22 00:16:24;;;;;;;;;;;;;;;29.58;13.54;102055.13;4998540;28;1298;-27
2022/03/22 00:18:49;;;;;;;;;;;;;;;29.66;13.45;102046.19;4997264;28;1353;-27
2022/03/22 00:21:15;;;;;;;;;;;;;;;29.52;13.87;102048.53;4997070;28;828;-27
2022/03/22 00:23:40;;;;;;;;;;;;;;;29.58;13.71;102047.84;4999909;28;1062;-27
2022/03/22 00:26:05;;;;;;;;;;;;;;;29.76;13.61;102048.75;5001910;28;1062;-27
2022/03/22 00:28:30;;;;;;;;;;;;;;;29.68;13.40;102045.00;5005749;28;839;-27
2022/03/22 00:30:56;;;;;;;;;;;;;;;29.54;13.23;102032.09;5013199;28;1155;-27
2022/03/22 00:33:22;;;;;;;;;;;;;;;29.64;13.77;102030.09;5007365;28;1971;-27
2022/03/22 00:35:48;;;;;;;;;;;;;;;29.62;13.58;102026.69;5003696;28;1201;-27
2022/03/22 00:38:16;;;;;;;;;;;;;;;29.72;13.63;102020.25;5002863;28;1113;-27
2022/03/22 00:40:41;;;;;;;;;;;;;;;29.64;12.96;102015.69;5006642;28;1244;-27
2022/03/22 00:43:07;;;;;;;;;;;;;;;29.55;12.97;102014.78;5003404;28;1134;-27
2022/03/22 00:45:33;;;;;;;;;;;;;;;29.52;13.65;102007.84;5000302;28;774;-27
2022/03/22 00:47:58;;;;;;;;;;;;;;;29.66;13.42;102006.34;5004704;28;1196;-28
2022/03/22 00:50:26;;;;;;;;;;;;;;;29.74;13.43;102007.38;5015490;28;1259;-27
2022/03/22 00:52:52;;;;;;;;;;;;;;;29.56;13.07;101994.81;5007933;28;834;-27
2022/03/22 00:55:18;;;;;;;;;;;;;;;29.53;13.17;101998.69;4999801;28;1907;-27
2022/03/22 00:57:44;;;;;;;;;;;;;;;29.53;13.57;101995.16;4998847;28;893;-27
2022/03/22 01:00:11;;;;;;;;;;;;;;;29.61;13.46;101989.78;4999348;28;846;-27
2022/03/22 01:02:37;;;;;;;;;;;;;;;29.70;13.46;101983.31;4999446;28;814;-27
2022/03/22 01:05:03;;;;;;;;;;;;;;;29.58;13.59;101984.63;5004197;28;1515;-28
2022/03/22 01:07:29;;;;;;;;;;;;;;;29.53;13.23;101971.59;4999469;28;838;-28
2022/03/22 01:09:54;;;;;;;;;;;;;;;29.57;13.80;101967.53;4999698;28;734;-28
2022/03/22 01:12:19;;;;;;;;;;;;;;;29.59;13.71;101961.97;4999930;28;930;-27
2022/03/22 01:14:45;;;;;;;;;;;;;;;29.73;13.61;101960.41;5018066;28;1902;-27
2022/03/22 01:17:10;;;;;;;;;;;;;;;29.84;13.48;101956.50;5016175;28;1463;-27
2022/03/22 01:19:37;;;;;;;;;;;;;;;29.62;13.80;101953.50;4999349;28;990;-28
2022/03/22 01:22:02;;;;;;;;;;;;;;;29.51;13.69;101945.69;4999077;28;921;-28
2022/03/22 01:24:28;;;;;;;;;;;;;;;29.56;13.98;101949.56;5000385;28;1402;-28
2022/03/22 01:26:54;;;;;;;;;;;;;;;29.73;13.77;101951.44;4999337;28;805;-28
2022/03/22 01:29:19;;;;;;;;;;;;;;;29.87;13.82;101945.31;4998754;28;1003;-27
2022/03/22 01:31:44;;;;;;;;;;;;;;;29.56;13.73;101940.59;5010912;28;851;-27
2022/03/22 01:34:10;;;;;;;;;;;;;;;29.52;13.88;101937.38;5016479;28;1968;-28
2022/03/22 01:36:35;;;;;;;;;;;;;;;29.51;14.20;101929.41;5017633;28;794;-28
2022/03/22 01:39:01;;;;;;;;;;;;;;;29.52;14.30;101926.53;5017551;28;838;-29
2022/03/22 01:41:26;;;;;;;;;;;;;;;29.64;13.92;101924.34;5016973;28;820;-27
2022/03/22 01:43:51;;;;;;;;;;;;;;;29.71;14.00;101929.94;5001899;28;834;-28
2022/03/22 01:46:17;;;;;;;;;;;;;;;29.59;13.73;101915.88;4998594;28;826;-29
2022/03/22 01:48:42;;;;;;;;;;;;;;;29.53;13.99;101911.13;4997166;28;816;-28
2022/03/22 01:51:09;;;;;;;;;;;;;;;29.57;14.12;101913.31;4998400;28;793;-28
2022/03/22 01:53:35;;;;;;;;;;;;;;;29.63;14.24;101910.97;4998200;28;1957;-27
2022/03/22 01:56:00;;;;;;;;;;;;;;;29.71;14.25;101908.22;4998529;28;763;-28
2022/03/22 01:58:26;;;;;;;;;;;;;;;29.43;14.20;101903.13;4998303;28;936;-27
2022/03/22 02:05:51;;;;;;;;;;;;;;;29.35;14.66;101893.16;4998369;28;809;-27
2022/03/22 02:06:26;;;;;;;;;;;;;;;29.40;14.80;101898.06;5012223;28;687;-28
2022/03/22 02:08:51;;;;;;;;;;;;;;;29.59;14.52;101894.19;5007986;28;809;-28
2022/03/22 02:11:16;;;;;;;;;;;;;;;29.76;14.47;101892.25;4998095;28;830;-28
2022/03/22 02:13:42;;;;;;;;;;;;;;;29.57;14.31;101890.75;5003951;28;1894;-27
2022/03/22 02:16:07;;;;;;;;;;;;;;;29.42;14.60;101877.06;5016486;28;753;-29
2022/03/22 02:18:33;;;;;;;;;;;;;;;29.55;14.84;101884.66;5015754;28;1061;-29
2022/03/22 02:20:58;;;;;;;;;;;;;;;29.67;14.75;101875.19;5001138;28;916;-28
2022/03/22 02:23:39;;;;;;;;;;;;;;;29.77;14.79;101879.56;4998242;28;800;-28
2022/03/22 02:26:05;;;;;;;;;;;;;;;29.57;14.64;101877.22;5010889;28;1526;-29
2022/03/22 02:28:30;;;;;;;;;;;;;;;29.58;14.57;101877.03;5004623;28;959;-29
2022/03/22 02:30:55;;;;;;;;;;;;;;;29.62;14.83;101882.13;4998028;28;842;-29
2022/03/22 02:33:20;;;;;;;;;;;;;;;29.71;14.79;101875.69;4998794;28;1906;-29
2022/03/22 02:35:46;;;;;;;;;;;;;;;29.88;14.76;101875.66;4997578;28;729;-29
2022/03/22 02:38:12;;;;;;;;;;;;;;;29.53;14.81;101876.69;4997767;28;781;-27
2022/03/22 02:40:38;;;;;;;;;;;;;;;29.52;14.94;101872.31;4998803;28;1149;-29
2022/03/22 02:43:03;;;;;;;;;;;;;;;29.61;14.86;101875.88;5000456;28;1136;-28
2022/03/22 02:45:28;;;;;;;;;;;;;;;29.69;14.98;101870.44;4999098;28;1240;-28
2022/03/22 02:47:54;;;;;;;;;;;;;;;29.80;14.77;101862.94;4998706;28;1134;-28
2022/03/22 02:50:20;;;;;;;;;;;;;;;29.65;14.90;101869.09;4996789;28;1262;-27
2022/03/22 02:52:45;;;;;;;;;;;;;;;29.49;14.93;101864.53;4996087;28;1215;-28
2022/03/22 02:55:11;;;;;;;;;;;;;;;29.66;15.09;101861.81;4997792;28;1957;-28
2022/03/22 02:57:37;;;;;;;;;;;;;;;29.76;14.91;101858.91;4997054;28;905;-28
2022/03/22 03:00:06;;;;;;;;;;;;;;;29.83;15.08;101862.59;4998646;28;774;-29
2022/03/22 03:02:31;;;;;;;;;;;;;;;29.59;14.87;101856.22;4996927;28;797;-29
2022/03/22 03:04:56;;;;;;;;;;;;;;;29.46;15.00;101851.31;4997251;28;1083;-29
2022/03/22 03:07:21;;;;;;;;;;;;;;;29.54;15.27;101856.72;4997342;28;817;-28
2022/03/22 03:09:47;;;;;;;;;;;;;;;29.64;15.31;101843.00;4996769;28;738;-29
2022/03/22 03:12:12;;;;;;;;;;;;;;;29.76;15.01;101845.34;4996992;28;822;-29
2022/03/22 03:14:40;;;;;;;;;;;;;;;29.64;15.02;101853.84;5011731;28;1973;-29
2022/03/22 03:17:06;;;;;;;;;;;;;;;29.55;15.08;101852.13;5016169;28;793;-29
2022/03/22 03:19:31;;;;;;;;;;;;;;;29.60;15.15;101855.19;5008370;28;981;-29
2022/03/22 03:21:56;;;;;;;;;;;;;;;29.71;15.12;101848.56;4996965;28;808;-28
2022/03/22 03:24:22;;;;;;;;;;;;;;;29.83;15.06;101851.72;4997102;28;1144;-28
2022/03/22 03:26:47;;;;;;;;;;;;;;;28.93;14.16;101849.78;4995894;28;1597;-27
2022/03/22 03:29:12;;;;;;;;;;;;;;;28.24;14.21;101843.53;5000749;28;1160;-27
2022/03/22 03:31:38;;;;;;;;;;;;;;;28.21;15.14;101840.34;4996954;28;820;-29
2022/03/22 03:34:04;;;;;;;;;;;;;;;28.80;14.13;101839.47;4997338;28;1910;-27
2022/03/22 03:36:29;;;;;;;;;;;;;;;28.87;14.23;101847.75;5009432;28;861;-28
2022/03/22 03:38:54;;;;;;;;;;;;;;;28.63;14.13;101843.19;5002840;28;778;-29
2022/03/22 03:47:03;;;;;;;;;;;;;;;28.85;13.94;101842.50;4998620;28;628;-28
2022/03/22 03:47:04;;;;;;;;;;;;;;;28.97;13.75;101844.91;4996915;28;768;-29
2022/03/22 03:49:30;;;;;;;;;;;;;;;27.73;14.77;101843.47;4996796;28;854;-28
2022/03/22 03:51:55;;;;;;;;;;;;;;;27.92;14.61;101847.81;4996457;28;877;-28
2022/03/22 03:54:23;;;;;;;;;;;;;;;28.46;14.00;101854.78;4996309;28;1934;-28
2022/03/22 03:56:48;;;;;;;;;;;;;;;28.63;13.70;101852.13;4999765;28;833;-28
2022/03/22 03:59:14;;;;;;;;;;;;;;;28.68;13.77;101847.06;5000771;28;893;-28
2022/03/22 04:01:39;;;;;;;;;;;;;;;28.75;13.58;101849.94;5010770;28;1138;-29
2022/03/22 04:04:04;;;;;;;;;;;;;;;28.77;13.65;101841.66;5009234;28;860;-28
2022/03/22 04:06:30;;;;;;;;;;;;;;;28.90;13.61;101847.41;5000035;28;811;-29
2022/03/22 04:08:56;;;;;;;;;;;;;;;29.00;13.37;101841.00;5000648;28;817;-28
2022/03/22 04:11:21;;;;;;;;;;;;;;;29.05;13.65;101844.91;5000719;28;851;-28
2022/03/22 04:13:46;;;;;;;;;;;;;;;29.08;13.29;101839.16;5009006;28;1902;-29
2022/03/22 04:16:11;;;;;;;;;;;;;;;29.23;13.51;101830.31;5009882;28;841;-29
2022/03/22 04:18:37;;;;;;;;;;;;;;;29.40;13.43;101831.16;5000816;28;1041;-29
2022/03/22 04:21:02;;;;;;;;;;;;;;;29.48;13.32;101835.69;5004634;28;789;-29
2022/03/22 04:23:28;;;;;;;;;;;;;;;29.58;13.29;101830.94;4999884;28;825;-29
2022/03/22 04:25:53;;;;;;;;;;;;;;;29.66;13.29;101835.50;5000149;28;1089;-29
2022/03/22 04:33:46;;;;;;;;;;;;;;;27.17;15.38;101828.44;4999877;28;1918;-29
2022/03/22 04:36:12;;;;;;;;;;;;;;;28.44;14.20;101832.47;5004327;28;884;-28
2022/03/22 04:38:37;;;;;;;;;;;;;;;28.85;14.06;101818.13;5019088;28;750;-28
2022/03/22 04:41:03;;;;;;;;;;;;;;;28.93;13.57;101833.53;5014464;28;1582;-26
2022/03/22 04:43:28;;;;;;;;;;;;;;;28.97;13.68;101828.66;5004592;28;1625;-26
2022/03/22 04:45:53;;;;;;;;;;;;;;;28.96;13.81;101827.78;4999626;28;887;-27
2022/03/22 04:48:19;;;;;;;;;;;;;;;28.57;14.02;101836.56;4999422;28;814;-27
2022/03/22 04:50:44;;;;;;;;;;;;;;;26.80;13.59;101840.22;4999894;28;715;-29
2022/03/22 04:58:37;;;;;;;;;;;;;;;25.01;14.41;101822.03;5005562;28;635;-27
2022/03/22 05:01:03;;;;;;;;;;;;;;;24.54;14.43;101828.91;4999528;28;922;-27
2022/03/22 05:03:29;;;;;;;;;;;;;;;25.60;14.11;101818.38;5011781;28;813;-29
2022/03/22 05:08:38;;;;;;;;;;;;;;;27.82;13.27;101817.34;5017294;28;636;-28
2022/03/22 05:11:03;;;;;;;;;;;;;;;28.16;13.34;101815.63;5003262;28;1061;-27
2022/03/22 05:13:28;;;;;;;;;;;;;;;28.28;13.41;101817.00;5003495;28;1890;-27
2022/03/22 05:15:54;;;;;;;;;;;;;;;28.41;13.57;101815.72;4999037;28;829;-27
2022/03/22 05:18:20;;;;;;;;;;;;;;;28.65;13.41;101820.31;4999066;28;892;-26
2022/03/22 05:20:45;;;;;;;;;;;;;;;28.73;13.22;101814.06;5003096;28;1176;-26
2022/03/22 05:23:11;;;;;;;;;;;;;;;28.70;13.19;101822.53;4998681;28;1487;-27
2022/03/22 05:25:36;;;;;;;;;;;;;;;28.36;13.56;101825.16;4998876;28;1120;-27
2022/03/22 05:28:04;;;;;;;;;;;;;;;28.77;13.41;101807.31;5001245;28;767;-27
2022/03/22 05:30:30;;;;;;;;;;;;;;;28.96;13.60;101818.81;4998813;28;829;-27
2022/03/22 05:32:56;;;;;;;;;;;;;;;28.78;13.97;101825.22;4998465;28;922;-27
2022/03/22 05:35:23;;;;;;;;;;;;;;;29.10;13.69;101817.31;4998817;28;1918;-27
2022/03/22 05:37:48;;;;;;;;;;;;;;;29.20;13.56;101817.97;4998269;28;829;-26
2022/03/22 05:40:16;;;;;;;;;;;;;;;29.24;13.63;101798.66;4998964;28;798;-27
2022/03/22 05:42:41;;;;;;;;;;;;;;;29.37;13.62;101811.66;4999277;28;817;-27
2022/03/22 05:45:10;;;;;;;;;;;;;;;29.39;13.32;101806.94;4997786;28;1014;-34
2022/03/22 05:47:36;;;;;;;;;;;;;;;29.49;13.48;101810.31;4998115;28;1109;-27
2022/03/22 05:50:01;;;;;;;;;;;;;;;29.55;13.54;101806.03;5002951;28;1101;-27
2022/03/22 05:52:26;;;;;;;;;;;;;;;29.61;13.29;101810.81;4998405;28;826;-27
2022/03/22 05:54:51;;;;;;;;;;;;;;;29.68;13.49;101806.38;4998401;28;1902;-27
2022/03/22 05:57:17;;;;;;;;;;;;;;;29.83;13.20;101797.50;5001917;28;1090;-27
2022/03/22 05:59:42;;;;;;;;;;;;;;;29.78;13.37;101792.59;5001064;28;1090;-27
2022/03/22 06:02:08;;;;;;;;;;;;;;;29.84;13.31;101799.19;4998854;28;806;-27
2022/03/22 06:04:34;;;;;;;;;;;;;;;29.81;13.53;101800.38;4998165;28;802;-27
2022/03/22 06:07:00;;;;;;;;;;;;;;;29.92;13.41;101798.31;4998091;28;759;-27
2022/03/22 06:09:26;;;;;;;;;;;;;;;30.00;13.38;101795.56;4998670;28;1097;-27
2022/03/22 06:11:51;;;;;;;;;;;;;;;30.07;13.36;101790.25;5000339;28;893;-27
2022/03/22 06:14:16;;;;;;;;;;;;;;;30.09;13.55;101790.94;5001439;28;1898;-27
2022/03/22 06:16:42;;;;;;;;;;;;;;;30.24;13.15;101782.06;4998163;28;990;-27
2022/03/22 06:19:07;;;;;;;;;;;;;;;30.28;13.35;101783.41;5001004;28;983;-27
2022/03/22 06:21:32;;;;;;;;;;;;;;;30.36;13.21;101788.78;4997982;28;842;-27
2022/03/22 06:23:57;;;;;;;;;;;;;;;30.27;13.07;101793.41;4997737;28;830;-27
2022/03/22 06:26:23;;;;;;;;;;;;;;;30.34;12.95;101776.38;5003001;28;1286;-27
2022/03/22 06:28:48;;;;;;;;;;;;;;;30.19;13.66;101790.72;5001985;28;1235;-28
2022/03/22 06:31:14;;;;;;;;;;;;;;;30.24;13.41;101791.06;4997657;28;809;-27
2022/03/22 06:33:39;;;;;;;;;;;;;;;30.22;13.45;101787.66;4997910;28;1914;-29
2022/03/22 06:36:08;;;;;;;;;;;;;;;30.24;13.34;101795.63;4997316;28;807;-29
2022/03/22 06:38:33;;;;;;;;;;;;;;;30.26;13.65;101801.72;4997753;28;965;-27
2022/03/22 06:40:59;;;;;;;;;;;;;;;30.30;13.47;101792.19;4997782;28;849;-28
2022/03/22 06:43:24;;;;;;;;;;;;;;;30.42;13.31;101795.34;5003994;28;761;-28
2022/03/22 06:45:50;;;;;;;;;;;;;;;30.47;13.41;101794.78;4997714;28;731;-28
2022/03/22 06:48:18;;;;;;;;;;;;;;;30.48;13.28;101797.31;4997032;28;835;-28
2022/03/22 06:50:44;;;;;;;;;;;;;;;30.48;13.34;101799.22;4997765;28;935;-28
2022/03/22 06:53:09;;;;;;;;;;;;;;;30.53;13.23;101799.53;4997419;28;813;-27
2022/03/22 06:55:35;;;;;;;;;;;;;;;30.56;13.27;101799.16;4997524;28;1898;-27
2022/03/22 06:58:00;;;;;;;;;;;;;;;30.55;13.20;101803.72;5001712;28;897;-28
2022/03/22 07:00:27;;;;;;;;;;;;;;;30.58;13.32;101804.41;4996974;28;822;-28
2022/03/22 07:02:53;;;;;;;;;;;;;;;30.57;13.32;101800.81;4997723;28;983;-28
2022/03/22 07:05:18;;;;;;;;;;;;;;;30.67;13.30;101803.28;4998992;28;1237;-27
2022/03/22 07:07:43;;;;;;;;;;;;;;;30.70;13.46;101804.81;5003789;28;1026;-27
2022/03/22 07:10:12;;;;;;;;;;;;;;;30.70;13.25;101804.81;4997076;28;1023;-28
2022/03/22 07:12:51;;;;;;;;;;;;;;;30.70;13.27;101802.94;4999782;28;915;-27
2022/03/22 07:15:20;;;;;;;;;;;;;;;30.63;13.45;101813.66;4996483;28;1899;-28
2022/03/22 07:17:46;;;;;;;;;;;;;;;30.58;13.48;101812.53;4997739;28;778;-28
2022/03/22 07:20:11;;;;;;;;;;;;;;;30.65;13.52;101821.63;4999617;28;1023;-28
2022/03/22 07:22:36;;;;;;;;;;;;;;;30.70;13.46;101807.53;4996887;28;826;-28
2022/03/22 07:25:02;;;;;;;;;;;;;;;30.79;13.18;101815.44;4997470;28;1018;-28
2022/03/22 07:27:27;;;;;;;;;;;;;;;30.78;13.47;101813.72;4997227;28;877;-28
2022/03/22 07:29:52;;;;;;;;;;;;;;;30.73;13.44;101810.72;4997202;28;890;-28
2022/03/22 07:32:19;;;;;;;;;;;;;;;30.57;13.63;101817.13;5003364;28;861;-27
2022/03/22 07:34:45;;;;;;;;;;;;;;;30.63;13.76;101819.09;5003633;28;1906;-28
2022/03/22 07:37:13;;;;;;;;;;;;;;;30.95;13.40;101823.66;5012656;28;1212;-28
2022/03/22 07:39:38;;;;;;;;;;;;;;;31.00;13.50;101815.78;5007540;28;888;-28
2022/03/22 07:42:04;;;;;;;;;;;;;;;31.12;13.22;101811.59;5009858;28;1086;-29
2022/03/22 07:44:31;;;;;;;;;;;;;;;31.04;13.41;101815.25;5011629;28;1247;-29
2022/03/22 07:46:59;;;;;;;;;;;;;;;30.65;13.72;101814.34;5012832;28;1254;-28
2022/03/22 07:54:52;;;;;;;;;;;;;;;29.75;14.46;101808.38;5011867;28;1977;-28
2022/03/22 07:57:17;;;;;;;;;;;;;;;29.60;14.71;101802.81;5010535;28;1023;-28
2022/03/22 07:59:42;;;;;;;;;;;;;;;29.51;14.55;101812.84;5008825;28;1204;-28
2022/03/22 08:02:08;;;;;;;;;;;;;;;29.51;14.49;101810.97;5011501;28;1279;-27
2022/03/22 08:04:33;;;;;;;;;;;;;;;29.49;14.85;101807.59;5010683;28;1038;-28
2022/03/22 08:06:59;;;;;;;;;;;;;;;29.48;14.87;101815.91;5011551;28;1212;-28
2022/03/22 08:09:24;;;;;;;;;;;;;;;29.32;14.88;101802.22;5011208;28;1256;-27
2022/03/22 08:11:52;;;;;;;;;;;;;;;29.23;14.80;101795.09;5009650;28;1046;-28
2022/03/22 08:14:19;;;;;;;;;;;;;;;29.15;14.92;101811.38;5012200;28;1898;-28
2022/03/22 08:16:45;;;;;;;;;;;;;;;29.23;15.17;101814.06;5015437;28;1287;-28
2022/03/22 08:19:17;;;;;;;;;;;;;;;29.33;15.04;101817.44;5010704;28;1070;-28
2022/03/22 08:21:42;;;;;;;;;;;;;;;29.57;14.93;101814.84;5010878;28;1180;-28
2022/03/22 08:24:08;;;;;;;;;;;;;;;29.74;14.85;101815.69;5013431;28;1268;-26
2022/03/22 08:26:35;;;;;;;;;;;;;;;29.93;14.66;101802.69;5004896;28;1066;-27
2022/03/22 08:29:00;;;;;;;;;;;;;;;30.13;14.38;101816.69;5005003;28;1196;-27
2022/03/22 08:31:25;;;;;;;;;;;;;;;30.34;14.24;101822.53;5002604;28;754;-28
2022/03/22 08:33:53;;;;;;;;;;;;;;;29.80;14.40;101811.41;5004674;28;1901;-27
2022/03/22 08:36:20;;;;;;;;;;;;;;;29.59;14.60;101796.59;5010997;28;1184;-28
2022/03/22 08:38:46;;;;;;;;;;;;;;;29.34;14.91;101796.63;5016001;28;1224;-28
2022/03/22 08:41:11;;;;;;;;;;;;;;;29.82;14.88;101807.50;5021379;28;741;-27
2022/03/22 08:43:36;;;;;;;;;;;;;;;30.08;14.39;101788.41;5004384;28;865;-27
2022/03/22 08:46:02;;;;;;;;;;;;;;;30.38;14.13;101791.31;4999980;28;1389;-27
2022/03/22 08:48:27;;;;;;;;;;;;;;;29.89;14.54;101790.53;4999964;28;763;-28
2022/03/22 08:50:53;;;;;;;;;;;;;;;29.69;14.59;101794.53;4999458;28;796;-27
2022/03/22 08:53:19;;;;;;;;;;;;;;;29.66;14.75;101799.44;4999841;28;813;-28
2022/03/22 08:55:44;;;;;;;;;;;;;;;29.33;15.10;101790.34;4999272;28;1969;-27
2022/03/22 08:58:10;;;;;;;;;;;;;;;29.28;15.08;101781.06;5001812;28;865;-27
2022/03/22 09:00:38;;;;;;;;;;;;;;;29.20;15.05;101781.91;4999500;28;865;-27
2022/03/22 09:03:04;;;;;;;;;;;;;;;29.09;15.44;101775.00;5011944;28;1202;-27
2022/03/22 09:08:13;;;;;;;;;;;;;;;30.01;14.82;101785.56;5016133;28;786;-24
2022/03/22 09:10:38;;;;;;;;;;;;;;;30.19;14.44;101790.72;4999435;28;806;-26
2022/03/22 09:13:04;;;;;;;;;;;;;;;30.71;14.30;101777.47;5000118;28;1096;-28
2022/03/22 09:15:29;;;;;;;;;;;;;;;31.06;13.74;101768.88;4998808;28;1964;-29
2022/03/22 09:17:55;;;;;;;;;;;;;;;30.47;14.34;101773.06;5002639;28;1132;-28
2022/03/22 09:20:20;;;;;;;;;;;;;;;29.48;15.06;101770.66;4999800;28;1551;-29
2022/03/22 09:22:47;;;;;;;;;;;;;;;29.20;15.39;101754.81;5001929;28;853;-30
2022/03/22 09:25:13;;;;;;;;;;;;;;;29.86;15.00;101752.91;5011706;28;1025;-27
2022/03/22 09:27:38;;;;;;;;;;;;;;;30.48;14.19;101761.19;5015229;28;1112;-27
2022/03/22 09:30:04;;;;;;;;;;;;;;;30.94;13.95;101759.47;4999738;28;1109;-27
2022/03/22 09:32:29;;;;;;;;;;;;;;;30.47;14.17;101764.94;4998944;28;1160;-27
2022/03/22 09:34:54;;;;;;;;;;;;;;;29.60;14.81;101756.75;5006979;28;1983;-27
2022/03/22 09:37:20;;;;;;;;;;;;;;;30.53;14.46;101756.91;5009637;28;1117;-28
2022/03/22 09:39:48;;;;;;;;;;;;;;;30.87;13.95;101770.22;5017805;28;912;-28
2022/03/22 09:42:13;;;;;;;;;;;;;;;31.16;13.73;101765.88;5015700;28;809;-27
2022/03/22 09:44:38;;;;;;;;;;;;;;;29.68;14.90;101756.69;4998503;28;952;-27
2022/03/22 09:47:04;;;;;;;;;;;;;;;29.42;15.16;101752.38;4998853;28;815;-27
2022/03/22 09:49:29;;;;;;;;;;;;;;;29.26;15.54;101756.00;4998620;28;810;-27
2022/03/22 09:51:54;;;;;;;;;;;;;;;29.17;15.58;101756.00;4998280;28;873;-27
2022/03/22 09:54:22;;;;;;;;;;;;;;;29.16;15.41;101759.72;4998004;28;1898;-28
2022/03/22 09:56:47;;;;;;;;;;;;;;;29.04;15.51;101753.84;4998364;28;841;-29
2022/03/22 09:59:14;;;;;;;;;;;;;;;29.48;15.21;101776.06;5002372;28;770;-28
2022/03/22 10:01:40;;;;;;;;;;;;;;;29.98;14.53;101753.38;5001980;28;749;-28
2022/03/22 10:04:09;;;;;;;;;;;;;;;30.25;14.14;101743.88;4998333;28;790;-29
2022/03/22 10:06:35;;;;;;;;;;;;;;;30.57;14.00;101748.38;4998265;28;810;-28
2022/03/22 10:09:01;;;;;;;;;;;;;;;31.06;13.60;101746.28;4998491;28;806;-28
2022/03/22 10:11:44;;;;;;;;;;;;;;;31.24;13.47;101770.38;5010658;28;830;-28
2022/03/22 10:14:10;;;;;;;;;;;;;;;29.70;15.32;101765.50;5008398;28;1902;-28
2022/03/22 10:16:45;;;;;;;;;;;;;;;28.70;16.26;101761.09;5017142;28;821;-28
2022/03/22 10:19:20;;;;;;;;;;;;;;;28.64;16.37;101750.09;5016233;28;970;-28
2022/03/22 10:21:45;;;;;;;;;;;;;;;30.42;14.69;101760.03;5016674;28;845;-28
2022/03/22 10:24:12;;;;;;;;;;;;;;;30.76;14.57;101768.78;5016884;28;798;-28
2022/03/22 10:26:38;;;;;;;;;;;;;;;31.10;14.16;101761.16;5004496;28;780;-28
2022/03/22 10:29:06;;;;;;;;;;;;;;;31.24;14.05;101749.47;5002439;28;822;-28
2022/03/22 10:31:37;;;;;;;;;;;;;;;29.29;15.35;101748.38;4997878;28;742;-28
2022/03/22 10:34:03;;;;;;;;;;;;;;;29.02;15.98;101763.13;4997630;28;1906;-28
2022/03/22 10:36:28;;;;;;;;;;;;;;;28.75;16.18;101763.28;4997791;28;818;-28
2022/03/22 10:38:57;;;;;;;;;;;;;;;28.68;16.27;101765.84;4997680;28;814;-28
2022/03/22 10:41:26;;;;;;;;;;;;;;;30.02;15.16;101765.53;4997499;28;828;-28
2022/03/22 10:44:02;;;;;;;;;;;;;;;30.59;14.68;101768.91;5000650;28;892;-28
2022/03/22 10:46:27;;;;;;;;;;;;;;;30.89;14.49;101768.19;5009998;28;830;-28
2022/03/22 10:48:59;;;;;;;;;;;;;;;31.21;14.26;101785.19;5016094;28;896;-28
2022/03/22 10:51:30;;;;;;;;;;;;;;;31.43;13.76;101774.41;5009928;28;818;-28
2022/03/22 10:53:56;;;;;;;;;;;;;;;31.59;13.74;101767.09;4997474;28;1971;-28
2022/03/22 10:56:22;;;;;;;;;;;;;;;30.01;15.07;101763.84;4997174;28;814;-28
2022/03/22 10:58:47;;;;;;;;;;;;;;;29.43;15.62;101762.19;4997183;28;852;-28
2022/03/22 11:01:15;;;;;;;;;;;;;;;29.06;15.74;101759.91;4995890;28;861;-28
2022/03/22 11:03:40;;;;;;;;;;;;;;;29.82;15.50;101758.69;5002983;28;943;-28
2022/03/22 11:06:06;;;;;;;;;;;;;;;30.55;14.71;101773.84;4995565;28;900;-28
2022/03/22 11:08:31;;;;;;;;;;;;;;;30.90;14.28;101773.41;4997303;28;862;-28
2022/03/22 11:10:57;;;;;;;;;;;;;;;31.05;14.21;101778.03;4996915;28;865;-28
2022/03/22 11:13:23;;;;;;;;;;;;;;;31.14;14.38;101779.66;5002557;28;802;-28
2022/03/22 11:15:48;;;;;;;;;;;;;;;31.20;14.04;101780.75;4997087;28;1984;-28
2022/03/22 11:18:14;;;;;;;;;;;;;;;30.70;14.39;101769.50;5013848;28;880;-28
2022/03/22 11:20:49;;;;;;;;;;;;;;;29.67;15.33;101774.00;5004620;28;974;-28
2022/03/22 11:23:17;;;;;;;;;;;;;;;30.70;14.75;101773.06;4996785;28;844;-28
2022/03/22 11:25:43;;;;;;;;;;;;;;;30.96;14.38;101771.84;4996722;28;1190;-29
2022/03/22 11:28:09;;;;;;;;;;;;;;;31.12;14.41;101775.41;5004880;28;1020;-28
2022/03/22 11:30:39;;;;;;;;;;;;;;;30.20;14.84;101759.84;4997231;28;813;-28
2022/03/22 11:35:49;;;;;;;;;;;;;;;29.28;15.89;101752.06;5004961;28;1906;-28
2022/03/22 11:38:34;;;;;;;;;;;;;;;29.16;15.98;101764.31;5002364;28;1192;-28
2022/03/22 11:43:43;;;;;;;;;;;;;;;30.17;15.34;101790.88;5010192;28;1223;-29
2022/03/22 11:46:08;;;;;;;;;;;;;;;30.92;14.49;101794.97;5004974;28;1247;-29
2022/03/22 11:48:33;;;;;;;;;;;;;;;31.21;14.13;101796.06;5005528;28;1100;-27
2022/03/22 11:51:05;;;;;;;;;;;;;;;31.30;14.11;101806.84;5005597;28;1243;-28
2022/03/22 11:53:30;;;;;;;;;;;;;;;31.34;14.12;101800.84;5006790;28;2392;-29
2022/03/22 11:55:56;;;;;;;;;;;;;;;31.36;14.15;101803.38;5010818;28;1218;-27
2022/03/22 11:58:26;;;;;;;;;;;;;;;31.49;13.86;101810.91;4996625;28;801;-27
2022/03/22 12:00:52;;;;;;;;;;;;;;;30.26;14.84;101809.88;5000750;28;1200;-27
2022/03/22 12:03:19;;;;;;;;;;;;;;;29.97;15.15;101797.78;5011347;28;1200;-27
2022/03/22 12:05:45;;;;;;;;;;;;;;;30.25;15.10;101797.31;5015736;28;894;-26
2022/03/22 12:08:11;;;;;;;;;;;;;;;30.14;15.35;101804.81;5005039;28;762;-27
2022/03/22 12:10:36;;;;;;;;;;;;;;;30.18;15.31;101805.28;4996190;28;1086;-27
2022/03/22 12:13:02;;;;;;;;;;;;;;;30.27;15.20;101823.25;5004944;28;1073;-27
2022/03/22 12:15:27;;;;;;;;;;;;;;;30.36;15.07;101815.91;4996515;28;1973;-27
2022/03/22 12:17:53;;;;;;;;;;;;;;;30.34;14.96;101823.38;5005904;28;1228;-27
2022/03/22 12:20:19;;;;;;;;;;;;;;;30.34;14.98;101827.97;5005070;28;1053;-28
2022/03/22 12:22:46;;;;;;;;;;;;;;;30.42;15.08;101825.19;5000528;28;841;-28
2022/03/22 12:25:12;;;;;;;;;;;;;;;30.43;15.06;101837.72;4999702;28;1005;-27
2022/03/22 12:27:48;;;;;;;;;;;;;;;30.55;14.77;101841.75;5002920;28;790;-28
2022/03/22 12:30:13;;;;;;;;;;;;;;;30.55;14.73;101854.47;5000465;28;880;-28
2022/03/22 12:32:38;;;;;;;;;;;;;;;30.59;14.95;101839.50;4999354;28;873;-29
2022/03/22 12:35:04;;;;;;;;;;;;;;;30.60;14.94;101845.78;5002205;28;1914;-28
2022/03/22 12:37:29;;;;;;;;;;;;;;;30.55;14.82;101838.16;5018964;28;821;-28
2022/03/22 12:39:54;;;;;;;;;;;;;;;30.64;14.81;101861.53;5018631;28;825;-29
2022/03/22 12:42:20;;;;;;;;;;;;;;;30.83;14.78;101855.84;5016397;28;822;-29
2022/03/22 12:44:47;;;;;;;;;;;;;;;30.66;15.06;101854.03;4999695;28;850;-29
2022/03/22 12:47:12;;;;;;;;;;;;;;;30.58;14.79;101847.84;4999772;28;786;-29
2022/03/22 12:49:40;;;;;;;;;;;;;;;30.55;15.02;101860.75;4999516;28;881;-29
2022/03/22 12:52:07;;;;;;;;;;;;;;;30.60;14.95;101872.94;5000402;28;849;-29
2022/03/22 12:54:33;;;;;;;;;;;;;;;30.67;14.91;101869.34;4999171;28;1964;-29
2022/03/22 12:57:01;;;;;;;;;;;;;;;30.63;14.90;101875.31;5000063;28;770;-29
2022/03/22 12:59:26;;;;;;;;;;;;;;;30.52;15.18;101881.97;5012015;28;865;-29
2022/03/22 13:01:57;;;;;;;;;;;;;;;30.55;14.80;101873.47;5010728;28;1188;-29
2022/03/22 13:04:24;;;;;;;;;;;;;;;30.68;14.99;101886.44;4999400;28;1114;-29
2022/03/22 13:06:54;;;;;;;;;;;;;;;30.61;14.99;101901.78;5015098;28;1215;-29
2022/03/22 13:12:08;;;;;;;;;;;;;;;30.51;15.25;101899.31;5002115;28;896;-28
2022/03/22 13:17:17;;;;;;;;;;;;;;;30.63;15.21;101907.91;5006418;28;1144;-29
2022/03/22 13:19:42;;;;;;;;;;;;;;;30.63;15.15;101902.47;5010681;28;1314;-28
2022/03/22 13:22:16;;;;;;;;;;;;;;;30.62;15.17;101889.91;5007113;28;1376;-28
2022/03/22 13:24:41;;;;;;;;;;;;;;;30.83;14.93;101905.56;5007685;28;1116;-29
2022/03/22 13:27:07;;;;;;;;;;;;;;;30.88;14.95;101905.88;5007928;28;1196;-28